createdAt,value
2022-09-07T00:03:37.964Z,75.29
2022-09-07T00:08:41.383Z,74.96
2022-09-07T00:13:45.321Z,75.12
2022-09-07T00:23:05.685Z,76.03
2022-09-07T00:28:08.378Z,76.06
2022-09-07T00:33:10.705Z,76.41
2022-09-07T00:38:13.035Z,76.00
2022-09-07T00:43:27.322Z,76.10
2022-09-07T00:48:32.801Z,76.42
2022-09-07T00:53:38.171Z,76.56
2022-09-07T00:58:45.170Z,76.63
2022-09-07T01:03:48.616Z,76.76
2022-09-07T01:08:50.941Z,77.13
2022-09-07T01:13:53.901Z,77.53
2022-09-07T01:18:59.110Z,77.14
2022-09-07T01:24:15.375Z,77.40
2022-09-07T01:29:24.698Z,77.32
2022-09-07T01:34:27.076Z,77.55
2022-09-07T01:39:34.573Z,77.81
2022-09-07T01:44:36.837Z,77.94
2022-09-07T01:49:43.268Z,77.92
2022-09-07T01:54:48.998Z,77.96
2022-09-07T01:59:55.584Z,78.66
2022-09-07T02:05:03.810Z,78.63
2022-09-07T02:10:10.216Z,78.60
2022-09-07T02:15:17.271Z,78.66
2022-09-07T02:20:22.980Z,78.60
2022-09-07T02:25:28.942Z,78.45
2022-09-07T02:30:31.249Z,78.59
2022-09-07T02:35:34.262Z,78.53
2022-09-07T02:40:36.552Z,78.65
2022-09-07T02:45:40.814Z,78.76
2022-09-07T02:50:49.771Z,79.31
2022-09-07T02:55:55.135Z,79.14
2022-09-07T03:01:00.466Z,79.24
2022-09-07T03:06:04.837Z,79.27
2022-09-07T03:11:07.802Z,79.30
2022-09-07T03:16:13.126Z,80.30
2022-09-07T03:21:15.477Z,80.18
2022-09-07T03:26:23.862Z,80.19
2022-09-07T03:31:26.355Z,80.72
2022-09-07T03:36:30.653Z,81.25
2022-09-07T03:41:33.661Z,81.61
2022-09-07T03:46:36.014Z,81.66
2022-09-07T03:51:38.408Z,81.80
2022-09-07T03:56:41.226Z,81.87
2022-09-07T04:01:43.647Z,82.02
2022-09-07T04:06:46.333Z,82.36
2022-09-07T04:11:48.699Z,82.37
2022-09-07T04:16:51.118Z,82.19
2022-09-07T04:21:53.481Z,82.13
2022-09-07T04:26:56.482Z,82.40
2022-09-07T04:31:58.794Z,82.28
2022-09-07T04:37:01.089Z,82.16
2022-09-07T04:42:03.506Z,81.89
2022-09-07T04:47:06.204Z,82.00
2022-09-07T04:52:08.502Z,81.73
2022-09-07T04:57:11.415Z,81.46
2022-09-07T05:02:13.811Z,80.96
2022-09-07T05:07:16.232Z,80.99
2022-09-07T05:12:18.536Z,80.55
2022-09-07T05:17:20.873Z,80.45
2022-09-07T05:22:24.844Z,80.05
2022-09-07T05:27:27.198Z,79.56
2022-09-07T05:32:29.588Z,79.02
2022-09-07T05:37:31.954Z,78.71
2022-09-07T05:42:35.324Z,79.09
2022-09-07T05:47:38.052Z,78.77
2022-09-07T05:52:40.348Z,78.09
2022-09-07T05:57:43.185Z,77.66
2022-09-07T06:02:45.642Z,76.98
2022-09-07T06:07:48.428Z,76.49
2022-09-07T06:12:50.729Z,76.09
2022-09-07T06:17:53.739Z,75.89
2022-09-07T06:22:56.073Z,75.40
2022-09-07T06:27:59.469Z,74.96
2022-09-07T06:33:02.102Z,73.77
2022-09-07T06:38:04.395Z,73.24
2022-09-07T06:43:06.703Z,72.97
2022-09-07T06:48:09.000Z,72.55
2022-09-07T06:58:33.781Z,71.58
2022-09-07T07:03:36.612Z,70.89
2022-09-07T07:08:39.487Z,69.54
2022-09-07T07:13:42.831Z,69.06
2022-09-07T07:18:45.794Z,68.62
2022-09-07T07:23:50.025Z,67.97
2022-09-07T07:34:00.479Z,65.40
2022-09-07T07:39:03.670Z,64.60
2022-09-07T07:44:06.050Z,64.27
2022-09-07T07:49:09.043Z,64.01
2022-09-07T07:54:11.425Z,63.13
2022-09-07T07:59:15.939Z,62.43
2022-09-07T08:04:18.422Z,59.42
2022-09-07T08:09:20.793Z,57.24
2022-09-07T08:14:23.188Z,57.37
2022-09-07T08:19:25.475Z,56.55
2022-09-07T08:24:27.759Z,54.32
2022-09-07T08:29:33.813Z,52.81
2022-09-07T08:34:37.662Z,51.11
2022-09-07T08:39:40.857Z,50.61
2022-09-07T08:44:43.175Z,47.88
2022-09-07T08:49:48.660Z,47.77
2022-09-07T08:54:54.021Z,46.85
2022-09-07T08:59:59.257Z,46.32
2022-09-07T09:05:18.259Z,44.78
2022-09-07T09:10:31.092Z,43.20
2022-09-07T09:15:42.458Z,43.17
2022-09-07T09:20:47.713Z,42.46
2022-09-07T09:25:52.959Z,41.64
2022-09-07T09:30:55.334Z,40.90
2022-09-07T09:35:59.645Z,41.28
2022-09-07T09:41:05.960Z,41.62
2022-09-07T09:46:18.944Z,42.02
2022-09-07T09:56:45.864Z,40.60
2022-09-07T10:07:14.557Z,37.54
2022-09-07T10:12:19.829Z,38.85
2022-09-07T10:17:27.471Z,37.83
2022-09-07T10:22:32.925Z,39.15
2022-09-07T10:27:36.854Z,39.31
2022-09-07T10:32:42.104Z,39.67
2022-09-07T10:37:47.370Z,39.21
2022-09-07T10:48:28.860Z,37.68
2022-09-07T10:53:41.313Z,37.96
2022-09-07T11:04:09.733Z,36.73
2022-09-07T11:09:16.669Z,36.13
2022-09-07T11:14:22.199Z,36.90
2022-09-07T11:19:37.288Z,37.11
2022-09-07T11:24:45.243Z,36.83
2022-09-07T11:29:50.589Z,36.51
2022-09-07T11:34:57.363Z,35.89
2022-09-07T11:40:02.687Z,35.34
2022-09-07T11:45:12.846Z,34.26
2022-09-07T11:50:16.509Z,33.84
2022-09-07T11:55:23.793Z,35.69
2022-09-07T12:00:33.101Z,35.03
2022-09-07T12:05:38.362Z,33.44
2022-09-07T12:10:42.907Z,33.61
2022-09-07T12:15:52.443Z,33.32
2022-09-07T12:20:54.853Z,33.61
2022-09-07T12:26:17.127Z,33.06
2022-09-07T12:31:40.751Z,32.50
2022-09-07T12:36:58.987Z,31.62
2022-09-07T12:47:29.550Z,33.09
2022-09-07T12:52:31.807Z,31.19
2022-09-07T12:57:41.972Z,30.67
2022-09-07T13:02:56.763Z,32.22
2022-09-07T13:08:08.826Z,31.88
2022-09-07T13:13:14.678Z,31.96
2022-09-07T13:18:20.289Z,30.57
2022-09-07T13:23:24.117Z,30.26
2022-09-07T13:28:31.670Z,30.24
2022-09-07T13:33:34.070Z,29.45
2022-09-07T13:38:36.720Z,29.88
2022-09-07T13:43:40.055Z,30.55
2022-09-07T13:48:49.002Z,29.81
2022-09-07T13:53:52.283Z,30.60
2022-09-07T13:58:55.002Z,29.06
2022-09-07T14:04:07.586Z,28.80
2022-09-07T14:09:12.869Z,27.68
2022-09-07T14:14:17.886Z,27.51
2022-09-07T14:19:24.023Z,27.48
2022-09-07T14:24:28.674Z,26.58
2022-09-07T14:29:32.286Z,25.81
2022-09-07T14:34:35.985Z,25.86
2022-09-07T14:39:39.586Z,26.39
2022-09-07T14:44:43.095Z,25.88
2022-09-07T14:49:49.196Z,25.84
2022-09-07T14:54:52.575Z,25.33
2022-09-07T14:59:57.174Z,25.96
2022-09-07T15:05:02.588Z,26.18
2022-09-07T15:10:08.362Z,26.78
2022-09-07T15:15:12.414Z,27.73
2022-09-07T15:20:17.815Z,29.42
2022-09-07T15:25:20.131Z,30.90
2022-09-07T15:30:22.668Z,31.51
2022-09-07T15:35:25.425Z,31.18
2022-09-07T15:40:28.596Z,30.07
2022-09-07T15:45:30.938Z,28.90
2022-09-07T15:50:33.552Z,27.39
2022-09-07T15:55:37.207Z,26.91
2022-09-07T16:00:39.671Z,25.85
2022-09-07T16:05:43.978Z,26.68
2022-09-07T16:10:53.612Z,27.98
2022-09-07T16:15:59.904Z,29.56
2022-09-07T16:21:04.606Z,31.40
2022-09-07T16:26:08.125Z,32.99
2022-09-07T16:31:16.241Z,34.53
2022-09-07T16:36:19.248Z,35.76
2022-09-07T16:41:24.268Z,36.78
2022-09-07T16:46:28.267Z,38.17
2022-09-07T16:51:30.616Z,39.06
2022-09-07T16:56:38.309Z,40.14
2022-09-07T17:01:41.545Z,41.50
2022-09-07T17:06:44.467Z,42.25
2022-09-07T17:11:46.794Z,43.14
2022-09-07T17:16:49.198Z,44.16
2022-09-07T17:21:53.539Z,44.97
2022-09-07T17:26:55.847Z,45.62
2022-09-07T17:37:21.480Z,46.96
2022-09-07T17:42:26.313Z,49.05
2022-09-07T17:47:50.178Z,49.93
2022-09-07T17:52:53.164Z,50.69
2022-09-07T17:57:55.560Z,51.38
2022-09-07T18:02:58.947Z,52.65
2022-09-07T18:08:01.512Z,52.87
2022-09-07T18:13:03.907Z,53.57
2022-09-07T18:18:06.899Z,54.39
2022-09-07T18:23:10.399Z,54.53
2022-09-07T18:33:35.766Z,55.83
2022-09-07T18:38:38.099Z,56.20
2022-09-07T18:43:41.755Z,56.95
2022-09-07T18:48:44.144Z,57.71
2022-09-07T18:53:47.104Z,58.38
2022-09-07T18:58:54.456Z,58.69
2022-09-07T19:03:57.125Z,59.02
2022-09-07T19:08:59.756Z,59.63
2022-09-07T19:14:04.795Z,60.19
2022-09-07T19:19:07.669Z,60.62
2022-09-07T19:24:12.787Z,61.30
2022-09-07T19:29:17.066Z,62.11
2022-09-07T19:34:20.281Z,62.39
2022-09-07T19:39:22.616Z,62.60
2022-09-07T19:44:24.983Z,63.05
2022-09-07T19:49:27.617Z,63.73
2022-09-07T19:54:29.916Z,64.70
2022-09-07T19:59:32.258Z,65.53
2022-09-07T20:04:35.709Z,66.64
2022-09-07T20:09:37.996Z,67.21
2022-09-07T20:14:40.286Z,67.47
2022-09-07T20:19:42.607Z,67.11
2022-09-07T20:24:44.946Z,66.89
2022-09-07T20:29:47.224Z,66.81
2022-09-07T20:34:50.423Z,67.01
2022-09-07T20:39:52.827Z,67.32
2022-09-07T20:44:55.347Z,67.37
2022-09-07T20:49:57.645Z,67.52
2022-09-07T20:54:59.946Z,67.41
2022-09-07T21:00:02.425Z,67.38
2022-09-07T21:05:05.011Z,67.30
2022-09-07T21:10:07.741Z,67.26
2022-09-07T21:15:10.157Z,67.13
2022-09-07T21:20:12.443Z,67.28
2022-09-07T21:25:15.624Z,67.40
2022-09-07T21:30:18.004Z,67.60
2022-09-07T21:35:20.391Z,67.55
2022-09-07T21:40:24.491Z,67.71
2022-09-07T21:45:26.792Z,67.73
2022-09-07T21:50:29.924Z,68.05
2022-09-07T21:55:32.279Z,68.14
2022-09-07T22:00:34.664Z,68.33
2022-09-07T22:05:37.421Z,68.40
2022-09-07T22:10:39.797Z,68.83
2022-09-07T22:15:42.429Z,68.96
2022-09-07T22:20:44.804Z,69.02
2022-09-07T22:25:50.091Z,69.39
2022-09-07T22:30:54.600Z,69.63
2022-09-07T22:36:10.724Z,69.89
2022-09-07T22:41:15.181Z,69.65
2022-09-07T22:46:18.801Z,69.51
2022-09-07T22:51:21.852Z,69.41
2022-09-07T22:56:25.621Z,69.82
2022-09-07T23:01:29.310Z,70.06
2022-09-07T23:06:33.465Z,70.43
2022-09-07T23:11:36.213Z,70.02
2022-09-07T23:16:38.991Z,70.65
2022-09-07T23:21:41.880Z,71.17
2022-09-07T23:26:44.531Z,70.85
2022-09-07T23:31:47.959Z,70.77
2022-09-07T23:36:50.810Z,70.67
2022-09-07T23:41:53.513Z,70.56
2022-09-07T23:46:55.862Z,70.65
2022-09-07T23:51:58.156Z,70.68
2022-09-07T23:57:00.465Z,70.80
